createdAt,value
2019-05-19T00:00:46.835Z,6.87
2019-05-19T00:03:15.033Z,5.87
2019-05-19T00:05:43.232Z,8.80
2019-05-19T00:08:11.594Z,7.33
2019-05-19T00:10:39.797Z,5.85
2019-05-19T00:13:07.983Z,6.05
2019-05-19T00:15:36.221Z,5.67
2019-05-19T00:18:04.422Z,5.97
2019-05-19T00:20:32.624Z,5.47
2019-05-19T00:23:00.819Z,5.87
2019-05-19T00:25:29.064Z,5.90
2019-05-19T00:27:57.257Z,6.75
2019-05-19T00:30:25.443Z,7.62
2019-05-19T00:32:53.633Z,6.00
2019-05-19T00:35:21.894Z,5.92
2019-05-19T00:37:50.363Z,7.25
2019-05-19T00:40:18.571Z,8.13
2019-05-19T00:42:46.763Z,6.72
2019-05-19T00:45:14.970Z,7.15
2019-05-19T00:47:43.170Z,6.22
2019-05-19T00:50:11.395Z,8.78
2019-05-19T00:52:39.569Z,7.83
2019-05-19T00:55:08.340Z,7.37
2019-05-19T00:57:36.908Z,7.78
2019-05-19T01:00:08.380Z,7.78
2019-05-19T01:02:36.576Z,8.78
2019-05-19T01:05:07.381Z,9.13
2019-05-19T01:07:35.905Z,8.03
2019-05-19T01:10:05.947Z,7.70
2019-05-19T01:12:34.149Z,7.28
2019-05-19T01:15:02.352Z,8.60
2019-05-19T01:17:30.556Z,7.00
2019-05-19T01:19:58.751Z,6.08
2019-05-19T01:22:26.953Z,7.90
2019-05-19T01:24:55.145Z,7.15
2019-05-19T01:27:23.350Z,8.08
2019-05-19T01:29:51.542Z,6.30
2019-05-19T01:32:19.746Z,7.22
2019-05-19T01:34:47.937Z,6.20
2019-05-19T01:37:16.140Z,7.42
2019-05-19T01:39:44.334Z,6.12
2019-05-19T01:42:12.538Z,6.03
2019-05-19T01:44:40.735Z,6.47
2019-05-19T01:47:09.708Z,6.45
2019-05-19T01:49:37.902Z,7.05
2019-05-19T01:52:06.204Z,7.10
2019-05-19T01:54:34.396Z,7.08
2019-05-19T01:57:02.665Z,8.10
2019-05-19T01:59:31.421Z,8.73
2019-05-19T02:01:59.627Z,8.05
2019-05-19T02:04:27.822Z,8.05
2019-05-19T02:06:56.028Z,8.48
2019-05-19T02:09:24.537Z,7.28
2019-05-19T02:11:52.722Z,7.50
2019-05-19T02:14:20.916Z,9.40
2019-05-19T02:16:49.117Z,8.20
2019-05-19T02:19:17.309Z,8.78
2019-05-19T02:21:47.902Z,8.98
2019-05-19T02:24:15.432Z,8.00
2019-05-19T02:26:43.632Z,7.70
2019-05-19T02:29:11.824Z,7.47
2019-05-19T02:31:40.030Z,8.28
2019-05-19T02:34:08.226Z,10.60
2019-05-19T02:36:36.907Z,9.23
2019-05-19T02:39:06.342Z,8.83
2019-05-19T02:41:34.548Z,9.33
2019-05-19T02:44:02.924Z,10.05
2019-05-19T02:46:31.189Z,9.25
2019-05-19T02:48:59.623Z,9.35
2019-05-19T02:51:28.296Z,10.48
2019-05-19T02:53:56.668Z,8.70
2019-05-19T02:56:24.893Z,9.45
2019-05-19T02:58:53.075Z,8.98
2019-05-19T03:01:21.620Z,9.48
2019-05-19T03:03:49.826Z,10.93
2019-05-19T03:06:18.106Z,10.35
2019-05-19T03:08:47.083Z,10.10
2019-05-19T03:11:15.348Z,12.65
2019-05-19T03:13:43.554Z,12.13
2019-05-19T03:16:11.757Z,12.23
2019-05-19T03:18:39.968Z,12.78
2019-05-19T03:21:11.458Z,11.38
2019-05-19T03:23:38.111Z,12.70
2019-05-19T03:26:06.371Z,10.58
2019-05-19T03:28:34.585Z,11.90
2019-05-19T03:31:04.427Z,11.68
2019-05-19T03:33:34.944Z,12.20
2019-05-19T03:36:03.175Z,12.43
2019-05-19T03:38:31.383Z,12.70
2019-05-19T03:40:59.581Z,11.40
2019-05-19T03:43:27.836Z,9.15
2019-05-19T03:45:55.975Z,9.75
2019-05-19T03:48:24.272Z,10.53
2019-05-19T03:50:52.479Z,11.90
2019-05-19T03:53:20.678Z,11.10
2019-05-19T03:55:48.882Z,11.08
2019-05-19T03:58:17.087Z,12.18
2019-05-19T04:00:45.281Z,10.55
2019-05-19T04:03:16.422Z,10.75
2019-05-19T04:05:44.624Z,12.28
2019-05-19T04:08:12.838Z,11.78
2019-05-19T04:10:41.618Z,12.30
2019-05-19T04:13:09.833Z,10.55
2019-05-19T04:15:38.265Z,10.40
2019-05-19T04:18:06.466Z,10.98
2019-05-19T04:20:34.662Z,11.20
2019-05-19T04:23:02.880Z,11.93
2019-05-19T04:25:31.076Z,12.90
2019-05-19T04:27:59.296Z,10.98
2019-05-19T04:30:27.515Z,11.70
2019-05-19T04:32:55.734Z,12.40
2019-05-19T04:35:23.933Z,10.88
2019-05-19T04:37:52.146Z,11.33
2019-05-19T04:40:20.344Z,10.88
2019-05-19T04:42:48.544Z,11.30
2019-05-19T04:45:16.753Z,11.95
2019-05-19T04:47:44.977Z,10.20
2019-05-19T04:50:13.926Z,9.83
2019-05-19T04:52:42.145Z,11.45
2019-05-19T04:55:10.685Z,10.63
2019-05-19T04:57:38.898Z,10.15
2019-05-19T05:00:08.128Z,9.85
2019-05-19T05:02:36.396Z,9.53
2019-05-19T05:05:08.004Z,9.40
2019-05-19T05:07:36.193Z,10.58
2019-05-19T05:10:04.757Z,10.30
2019-05-19T05:12:33.539Z,12.45
2019-05-19T05:15:01.750Z,12.13
2019-05-19T05:17:29.944Z,11.22
2019-05-19T05:19:58.723Z,10.78
2019-05-19T05:22:26.922Z,10.32
2019-05-19T05:24:55.135Z,10.05
2019-05-19T05:27:23.330Z,9.80
2019-05-19T05:29:51.540Z,10.25
2019-05-19T05:32:19.733Z,9.90
2019-05-19T05:34:47.941Z,10.13
2019-05-19T05:37:17.134Z,9.95
2019-05-19T05:39:45.337Z,9.80
2019-05-19T05:42:13.533Z,9.80
2019-05-19T05:44:41.736Z,9.13
2019-05-19T05:47:09.946Z,10.03
2019-05-19T05:49:39.799Z,10.48
2019-05-19T05:52:08.055Z,11.45
2019-05-19T05:54:36.264Z,10.88
2019-05-19T05:57:04.476Z,11.60
2019-05-19T05:59:32.693Z,11.80
2019-05-19T06:02:00.893Z,10.50
2019-05-19T06:04:29.105Z,10.58
2019-05-19T06:06:57.311Z,12.63
2019-05-19T06:09:25.633Z,12.03
2019-05-19T06:11:53.821Z,11.45
2019-05-19T06:14:22.056Z,11.05
2019-05-19T06:16:50.258Z,11.78
2019-05-19T06:19:18.485Z,12.40
2019-05-19T06:21:46.678Z,11.60
2019-05-19T06:24:14.896Z,13.75
2019-05-19T06:26:43.110Z,12.35
2019-05-19T06:29:12.144Z,12.53
2019-05-19T06:31:40.344Z,13.80
2019-05-19T06:34:08.587Z,11.53
2019-05-19T06:36:36.764Z,13.32
2019-05-19T06:39:06.831Z,12.55
2019-05-19T06:41:35.796Z,11.97
2019-05-19T06:44:04.040Z,11.80
2019-05-19T06:46:32.311Z,11.95
2019-05-19T06:49:00.524Z,11.90
2019-05-19T06:51:28.735Z,11.50
2019-05-19T06:53:56.940Z,11.38
2019-05-19T06:56:25.137Z,11.03
2019-05-19T06:58:53.674Z,12.82
2019-05-19T07:01:21.880Z,11.45
2019-05-19T07:03:50.860Z,10.80
2019-05-19T07:06:19.632Z,11.80
2019-05-19T07:08:47.848Z,11.38
2019-05-19T07:11:16.050Z,11.20
2019-05-19T07:13:44.246Z,12.37
2019-05-19T07:16:12.457Z,11.55
2019-05-19T07:18:40.658Z,12.35
2019-05-19T07:21:08.868Z,11.43
2019-05-19T07:23:37.072Z,12.33
2019-05-19T07:26:05.563Z,11.78
2019-05-19T07:28:33.820Z,11.93
2019-05-19T07:31:02.539Z,10.65
2019-05-19T07:33:30.739Z,11.25
2019-05-19T07:35:58.947Z,10.72
2019-05-19T07:38:27.716Z,11.25
2019-05-19T07:40:56.501Z,10.75
2019-05-19T07:43:24.764Z,11.53
2019-05-19T07:45:53.300Z,10.00
2019-05-19T07:48:21.505Z,11.38
2019-05-19T07:50:49.712Z,11.60
2019-05-19T07:53:17.911Z,12.20
2019-05-19T07:55:46.134Z,11.15
2019-05-19T07:58:14.337Z,12.03
2019-05-19T08:00:42.556Z,10.08
2019-05-19T08:03:11.037Z,10.35
2019-05-19T08:05:39.243Z,13.83
2019-05-19T08:08:07.441Z,12.80
2019-05-19T08:10:35.665Z,10.98
2019-05-19T08:13:04.366Z,14.10
2019-05-19T08:15:32.633Z,10.18
2019-05-19T08:18:00.836Z,11.30
2019-05-19T08:20:29.043Z,12.33
2019-05-19T08:22:57.242Z,10.65
2019-05-19T08:25:26.785Z,11.65
2019-05-19T08:27:54.982Z,11.55
2019-05-19T08:30:23.959Z,11.30
2019-05-19T08:32:52.154Z,12.28
2019-05-19T08:35:21.125Z,11.22
2019-05-19T08:37:49.322Z,10.93
2019-05-19T08:40:17.531Z,12.25
2019-05-19T08:42:45.737Z,10.90
2019-05-19T08:45:13.941Z,11.03
2019-05-19T08:47:42.154Z,11.20
2019-05-19T08:50:10.395Z,11.68
2019-05-19T08:52:38.573Z,10.95
2019-05-19T08:55:06.796Z,12.88
2019-05-19T08:57:35.292Z,12.13
2019-05-19T09:00:04.675Z,14.43
2019-05-19T09:02:32.850Z,15.58
2019-05-19T09:05:01.073Z,14.10
2019-05-19T09:07:29.286Z,14.98
2019-05-19T09:09:57.496Z,13.53
2019-05-19T09:12:25.699Z,16.50
2019-05-19T09:14:53.900Z,13.93
2019-05-19T09:17:22.114Z,15.05
2019-05-19T09:19:50.320Z,17.07
2019-05-19T09:22:18.914Z,14.98
2019-05-19T09:24:47.102Z,15.85
2019-05-19T09:27:16.084Z,15.65
2019-05-19T09:29:44.291Z,16.25
2019-05-19T09:32:13.234Z,16.15
2019-05-19T09:34:41.432Z,15.60
2019-05-19T09:37:09.645Z,16.73
2019-05-19T09:39:37.848Z,15.45
2019-05-19T09:42:06.335Z,14.00
2019-05-19T09:44:35.018Z,16.82
2019-05-19T09:47:03.228Z,15.25
2019-05-19T09:49:35.177Z,16.55
2019-05-19T09:52:03.926Z,14.78
2019-05-19T09:54:44.245Z,13.50
2019-05-19T09:57:02.655Z,14.85
2019-05-19T09:59:30.852Z,14.73
2019-05-19T10:01:59.103Z,13.22
2019-05-19T10:04:28.043Z,14.38
2019-05-19T10:06:56.316Z,14.18
2019-05-19T10:09:30.637Z,16.77
2019-05-19T10:12:01.449Z,14.93
2019-05-19T10:14:29.648Z,14.68
2019-05-19T10:16:57.859Z,14.85
2019-05-19T10:19:26.063Z,13.15
2019-05-19T10:21:54.274Z,15.20
2019-05-19T10:24:22.512Z,15.93
2019-05-19T10:26:50.993Z,14.65
2019-05-19T10:29:19.208Z,15.18
2019-05-19T10:31:47.658Z,13.70
2019-05-19T10:34:15.910Z,13.75
2019-05-19T10:36:44.812Z,14.15
2019-05-19T10:39:13.014Z,13.48
2019-05-19T10:41:41.231Z,15.80
2019-05-19T10:44:09.438Z,14.25
2019-05-19T10:46:38.323Z,13.35
2019-05-19T10:49:06.537Z,14.47
2019-05-19T10:51:34.747Z,16.05
2019-05-19T10:54:02.954Z,12.58
2019-05-19T10:56:31.733Z,12.37
2019-05-19T10:58:59.938Z,12.10
2019-05-19T11:01:28.146Z,13.50
2019-05-19T11:03:56.384Z,11.38
2019-05-19T11:06:24.654Z,11.10
2019-05-19T11:08:52.832Z,11.85
2019-05-19T11:11:21.058Z,12.28
2019-05-19T11:13:49.258Z,13.13
2019-05-19T11:16:18.113Z,13.28
2019-05-19T11:18:46.504Z,13.80
2019-05-19T11:21:14.709Z,11.85
2019-05-19T11:23:43.838Z,15.28
2019-05-19T11:26:12.036Z,14.05
2019-05-19T11:28:41.088Z,12.30
2019-05-19T11:31:09.602Z,15.18
2019-05-19T11:33:38.071Z,14.78
2019-05-19T11:36:06.272Z,13.40
2019-05-19T11:38:35.156Z,12.95
2019-05-19T11:41:03.357Z,12.33
2019-05-19T11:43:31.576Z,13.88
2019-05-19T11:46:00.449Z,13.88
2019-05-19T11:48:28.657Z,11.40
2019-05-19T11:50:57.676Z,12.28
2019-05-19T11:53:25.889Z,13.62
2019-05-19T11:56:05.781Z,13.70
2019-05-19T11:58:24.801Z,12.85
2019-05-19T12:00:53.009Z,12.35
2019-05-19T12:03:21.797Z,12.45
2019-05-19T12:05:50.667Z,12.20
2019-05-19T12:08:18.875Z,12.35
2019-05-19T12:10:47.077Z,13.53
2019-05-19T12:13:15.299Z,12.85
2019-05-19T12:15:43.505Z,13.30
2019-05-19T12:18:12.595Z,12.05
2019-05-19T12:20:40.815Z,12.20
2019-05-19T12:23:09.062Z,11.48
2019-05-19T12:25:37.260Z,11.33
2019-05-19T12:28:05.485Z,10.48
2019-05-19T12:30:34.439Z,11.05
2019-05-19T12:33:02.669Z,11.63
2019-05-19T12:35:30.864Z,10.48
2019-05-19T12:37:59.065Z,13.08
2019-05-19T12:40:27.270Z,10.93
2019-05-19T12:42:55.477Z,10.72
2019-05-19T12:45:23.673Z,10.60
2019-05-19T12:47:52.415Z,9.43
2019-05-19T12:50:20.630Z,12.63
2019-05-19T12:52:48.829Z,9.43
2019-05-19T12:55:17.023Z,9.60
2019-05-19T12:57:45.281Z,8.88
2019-05-19T13:00:13.479Z,9.48
2019-05-19T13:02:42.000Z,10.43
2019-05-19T13:05:10.194Z,9.45
2019-05-19T13:07:38.403Z,9.20
2019-05-19T13:10:07.422Z,9.68
2019-05-19T13:12:35.625Z,10.13
2019-05-19T13:15:06.617Z,10.05
2019-05-19T13:17:35.147Z,10.25
2019-05-19T13:20:03.851Z,9.03
2019-05-19T13:22:32.040Z,9.25
2019-05-19T13:25:00.819Z,11.25
2019-05-19T13:27:29.013Z,9.63
2019-05-19T13:29:57.221Z,8.63
2019-05-19T13:32:26.018Z,9.63
2019-05-19T13:34:54.194Z,11.08
2019-05-19T13:37:22.771Z,10.25
2019-05-19T13:39:51.029Z,9.55
2019-05-19T13:42:19.214Z,9.70
2019-05-19T13:44:48.661Z,10.10
2019-05-19T13:47:16.860Z,10.72
2019-05-19T13:49:45.333Z,10.23
2019-05-19T13:52:13.798Z,10.10
2019-05-19T13:54:42.019Z,10.95
2019-05-19T13:57:12.531Z,9.73
2019-05-19T13:59:40.144Z,9.50
2019-05-19T14:02:08.343Z,11.60
2019-05-19T14:04:36.686Z,11.53
2019-05-19T14:07:04.902Z,10.90
2019-05-19T14:09:33.125Z,11.63
2019-05-19T14:12:01.308Z,10.35
2019-05-19T14:14:29.522Z,10.45
2019-05-19T14:16:57.721Z,11.88
2019-05-19T14:19:26.102Z,9.43
2019-05-19T14:21:54.762Z,10.82
2019-05-19T14:24:22.968Z,9.60
2019-05-19T14:26:51.930Z,9.60
2019-05-19T14:29:20.142Z,8.98
2019-05-19T14:31:48.325Z,9.45
2019-05-19T14:34:16.533Z,10.25
2019-05-19T14:36:44.725Z,9.13
2019-05-19T14:39:12.930Z,9.98
2019-05-19T14:41:43.531Z,9.48
2019-05-19T14:44:11.733Z,9.35
2019-05-19T14:46:39.930Z,10.18
2019-05-19T14:49:08.906Z,10.75
2019-05-19T14:51:37.108Z,9.98
2019-05-19T14:54:05.559Z,10.15
2019-05-19T14:56:34.221Z,11.30
2019-05-19T14:59:02.431Z,11.50
2019-05-19T15:01:30.626Z,10.43
2019-05-19T15:03:59.406Z,11.78
2019-05-19T15:06:27.619Z,11.68
2019-05-19T15:08:55.843Z,12.10
2019-05-19T15:11:24.024Z,12.80
2019-05-19T15:13:53.013Z,13.40
2019-05-19T15:16:22.027Z,11.80
2019-05-19T15:18:50.235Z,12.82
2019-05-19T15:21:19.363Z,14.73
2019-05-19T15:23:47.944Z,15.10
2019-05-19T15:26:16.822Z,13.62
2019-05-19T15:28:45.026Z,13.95
2019-05-19T15:31:14.012Z,13.48
2019-05-19T15:33:42.211Z,13.40
2019-05-19T15:36:10.424Z,12.65
2019-05-19T15:38:38.634Z,14.55
2019-05-19T15:41:06.838Z,13.35
2019-05-19T15:43:35.043Z,12.95
2019-05-19T15:46:03.257Z,13.90
2019-05-19T15:48:32.023Z,14.53
2019-05-19T15:51:00.241Z,13.48
2019-05-19T15:53:28.443Z,13.60
2019-05-19T15:55:56.654Z,14.30
2019-05-19T15:58:25.164Z,13.53
2019-05-19T16:00:53.383Z,13.28
2019-05-19T16:03:21.579Z,14.10
2019-05-19T16:05:50.563Z,13.45
2019-05-19T16:08:18.767Z,14.25
2019-05-19T16:10:46.985Z,16.23
2019-05-19T16:13:15.958Z,13.22
2019-05-19T16:15:44.183Z,14.15
2019-05-19T16:18:12.386Z,12.85
2019-05-19T16:20:40.603Z,13.08
2019-05-19T16:23:08.804Z,14.30
2019-05-19T16:25:37.016Z,12.70
2019-05-19T16:28:05.275Z,15.05
2019-05-19T16:30:33.534Z,12.93
2019-05-19T16:33:01.742Z,12.73
2019-05-19T16:35:29.948Z,14.18
2019-05-19T16:37:58.634Z,13.18
2019-05-19T16:40:26.908Z,12.78
2019-05-19T16:42:55.691Z,12.07
2019-05-19T16:45:24.177Z,12.70
2019-05-19T16:47:52.402Z,13.45
2019-05-19T16:50:20.633Z,13.65
2019-05-19T16:52:48.828Z,14.10
2019-05-19T16:55:18.679Z,13.00
2019-05-19T16:57:46.886Z,16.00
2019-05-19T17:00:15.105Z,13.68
2019-05-19T17:02:43.310Z,12.68
2019-05-19T17:05:11.990Z,13.65
2019-05-19T17:07:40.191Z,13.08
2019-05-19T17:10:08.840Z,12.68
2019-05-19T17:12:37.082Z,15.50
2019-05-19T17:15:05.705Z,12.85
2019-05-19T17:17:33.910Z,13.05
2019-05-19T17:20:02.132Z,13.03
2019-05-19T17:22:30.330Z,14.20
2019-05-19T17:25:00.347Z,16.15
2019-05-19T17:27:28.469Z,13.53
2019-05-19T17:29:56.668Z,15.30
2019-05-19T17:32:24.883Z,14.78
2019-05-19T17:34:53.093Z,14.70
2019-05-19T17:37:21.872Z,14.07
2019-05-19T17:39:50.076Z,14.38
2019-05-19T17:42:18.851Z,16.15
2019-05-19T17:44:47.053Z,15.30
2019-05-19T17:47:15.264Z,15.00
2019-05-19T17:49:43.470Z,17.67
2019-05-19T17:52:11.683Z,17.10
2019-05-19T17:54:39.878Z,17.32
2019-05-19T17:57:08.091Z,16.85
2019-05-19T17:59:36.294Z,17.12
2019-05-19T18:02:04.511Z,16.05
2019-05-19T18:04:32.717Z,16.95
2019-05-19T18:07:00.926Z,15.98
2019-05-19T18:09:29.695Z,15.98
2019-05-19T18:11:57.911Z,15.25
2019-05-19T18:14:26.116Z,16.07
2019-05-19T18:16:54.326Z,13.13
2019-05-19T18:19:23.091Z,14.68
2019-05-19T18:21:51.310Z,11.60
2019-05-19T18:24:19.508Z,12.70
2019-05-19T18:26:47.721Z,13.83
2019-05-19T18:29:15.926Z,11.48
2019-05-19T18:31:44.142Z,10.58
2019-05-19T18:34:12.347Z,11.73
2019-05-19T18:36:40.567Z,12.95
2019-05-19T18:39:08.775Z,14.07
2019-05-19T18:41:37.718Z,13.28
2019-05-19T18:44:05.915Z,11.55
2019-05-19T18:46:34.117Z,9.83
2019-05-19T18:49:02.321Z,10.43
2019-05-19T18:51:30.525Z,9.88
2019-05-19T18:53:58.724Z,10.88
2019-05-19T18:56:26.939Z,10.00
2019-05-19T18:58:55.125Z,9.95
2019-05-19T19:01:23.335Z,10.23
2019-05-19T19:03:51.530Z,9.38
2019-05-19T19:06:19.767Z,9.70
2019-05-19T19:08:48.262Z,9.95
2019-05-19T19:11:16.459Z,9.98
2019-05-19T19:13:44.919Z,9.45
2019-05-19T19:16:13.108Z,8.93
2019-05-19T19:18:41.681Z,10.35
2019-05-19T19:21:09.981Z,15.45
2019-05-19T19:23:38.189Z,8.98
2019-05-19T19:26:06.718Z,8.98
2019-05-19T19:28:36.464Z,11.53
2019-05-19T19:31:06.878Z,8.40
2019-05-19T19:33:35.344Z,8.75
2019-05-19T19:36:03.532Z,8.75
2019-05-19T19:38:32.205Z,8.40
2019-05-19T19:41:00.474Z,8.28
2019-05-19T19:43:28.678Z,10.20
2019-05-19T19:45:56.959Z,9.15
2019-05-19T19:48:25.169Z,7.55
2019-05-19T19:50:53.369Z,8.83
2019-05-19T19:53:21.574Z,7.60
2019-05-19T19:55:50.245Z,7.45
2019-05-19T19:58:18.459Z,7.42
2019-05-19T20:00:46.909Z,9.48
2019-05-19T20:03:15.386Z,7.87
2019-05-19T20:05:43.576Z,6.72
2019-05-19T20:08:11.960Z,7.10
2019-05-19T20:10:40.154Z,7.78
2019-05-19T20:13:08.699Z,7.83
2019-05-19T20:15:37.538Z,6.75
2019-05-19T20:18:05.740Z,6.25
2019-05-19T20:20:33.938Z,7.70
2019-05-19T20:23:02.433Z,8.28
2019-05-19T20:25:30.691Z,7.25
2019-05-19T20:27:58.904Z,6.97
2019-05-19T20:30:35.613Z,7.35
2019-05-19T20:32:57.786Z,6.78
2019-05-19T20:35:26.268Z,6.72
2019-05-19T20:37:54.489Z,8.75
2019-05-19T20:40:22.686Z,7.08
2019-05-19T20:42:50.938Z,6.78
2019-05-19T20:45:19.598Z,6.58
2019-05-19T20:47:48.604Z,7.60
2019-05-19T20:50:16.790Z,11.18
2019-05-19T20:52:45.467Z,6.12
2019-05-19T20:55:13.678Z,6.72
2019-05-19T20:57:42.648Z,7.28
2019-05-19T21:00:10.877Z,7.53
2019-05-19T21:02:39.372Z,7.17
2019-05-19T21:05:07.572Z,8.35
2019-05-19T21:07:35.949Z,9.18
2019-05-19T21:10:08.018Z,7.05
2019-05-19T21:12:36.216Z,7.90
2019-05-19T21:15:05.167Z,10.43
2019-05-19T21:17:33.522Z,8.23
2019-05-19T21:20:02.226Z,8.15
2019-05-19T21:22:30.913Z,7.62
2019-05-19T21:25:00.410Z,8.15
2019-05-19T21:27:28.607Z,8.73
2019-05-19T21:29:56.813Z,8.48
2019-05-19T21:32:25.009Z,7.58
2019-05-19T21:34:53.214Z,9.95
2019-05-19T21:37:21.413Z,8.15
2019-05-19T21:39:49.987Z,11.00
2019-05-19T21:42:18.178Z,9.95
2019-05-19T21:44:46.384Z,10.70
2019-05-19T21:47:15.154Z,10.35
2019-05-19T21:49:43.365Z,11.43
2019-05-19T21:52:11.562Z,10.38
2019-05-19T21:54:40.058Z,11.53
2019-05-19T21:57:08.257Z,10.85
2019-05-19T21:59:36.448Z,9.53
2019-05-19T22:02:04.727Z,10.63
2019-05-19T22:04:32.922Z,11.25
2019-05-19T22:07:14.652Z,13.20
2019-05-19T22:09:42.850Z,11.73
2019-05-19T22:12:11.057Z,11.80
2019-05-19T22:14:39.272Z,11.97
2019-05-19T22:17:07.483Z,11.38
2019-05-19T22:19:36.445Z,12.23
2019-05-19T22:22:04.659Z,12.75
2019-05-19T22:24:32.934Z,12.58
2019-05-19T22:27:02.206Z,10.70
2019-05-19T22:29:30.401Z,11.70
2019-05-19T22:31:58.967Z,12.37
2019-05-19T22:34:27.168Z,10.43
2019-05-19T22:36:55.400Z,10.45
2019-05-19T22:39:24.155Z,11.55
2019-05-19T22:41:52.372Z,10.08
2019-05-19T22:44:21.140Z,8.73
2019-05-19T22:46:49.353Z,10.10
2019-05-19T22:49:17.553Z,10.93
2019-05-19T22:51:45.762Z,12.10
2019-05-19T22:54:13.960Z,9.88
2019-05-19T22:56:42.174Z,9.70
2019-05-19T22:59:19.370Z,10.78
2019-05-19T23:01:51.365Z,10.45
2019-05-19T23:04:11.409Z,13.85
2019-05-19T23:06:39.631Z,11.50
2019-05-19T23:09:07.831Z,13.60
2019-05-19T23:11:36.046Z,12.43
2019-05-19T23:14:04.247Z,12.98
2019-05-19T23:16:32.926Z,11.53
2019-05-19T23:19:01.694Z,11.12
2019-05-19T23:21:30.251Z,10.53
2019-05-19T23:23:59.031Z,10.53
2019-05-19T23:26:27.258Z,12.93
2019-05-19T23:28:56.027Z,11.12
2019-05-19T23:31:24.237Z,13.03
2019-05-19T23:33:52.451Z,11.60
2019-05-19T23:36:20.659Z,12.58
2019-05-19T23:38:48.877Z,12.15
2019-05-19T23:41:17.075Z,13.40
2019-05-19T23:43:45.859Z,14.55
2019-05-19T23:46:14.070Z,15.65
2019-05-19T23:48:42.282Z,17.77
2019-05-19T23:51:10.487Z,15.08
2019-05-19T23:53:38.706Z,17.45
2019-05-19T23:56:06.906Z,15.43
2019-05-19T23:58:35.788Z,16.35
